Ever Delight — 3FCB8 — position and weather

sailwx.info

Track history (hours):
 
Tides and Currents Weather Stations Pressure Air Temp Water Temp Dewpoint Dewpoint Depression Visibility Wind Speed Wind Dir Waves Ship Positions

Ever Delight

Last reported at 2014-Oct-09 18:04 UTC. Time now 2014-Oct-21 08:53 UTC.
Position N 39°22' W 073°54'.
Warning: this ship's position is 11 days out of date.

Type: Cargo ship. MMSI: 351936000.

Date/timePositionNaut miles runAvg speedWind from/ knotsBaromVisibWave heightAir tempDewpointWater temp
2014-Oct-09 18:04N 39°22' W 073°54'1314.4
2014-Oct-09 17:10N 39°35' W 073°53'913.9
2014-Oct-09 16:33N 39°43' W 073°53'1514.4
2014-Oct-09 15:32N 39°58' W 073°51'1914.5
2014-Oct-09 14:12N 40°17' W 073°49'913.3
2014-Oct-09 13:30N 40°27' W 073°49'1313.5
2014-Oct-09 12:33N 40°35' W 074°02'7 6.8
2014-Oct-09 11:34N 40°39' W 074°09'2 1.9
2014-Oct-09 10:30N 40°41' W 074°09'0 0.0
2014-Oct-09 09:33N 40°41' W 074°09'0 0.0
2014-Oct-09 08:33N 40°41' W 074°09'0 0.0
2014-Oct-09 07:26N 40°41' W 074°09'0 0.0
2014-Oct-09 06:31N 40°41' W 074°09'0 0.0
2014-Oct-09 05:31N 40°41' W 074°09'0 0.0
2014-Oct-09 04:25N 40°41' W 074°09'0 0.0
2014-Oct-09 03:25N 40°41' W 074°09'0 0.0
2014-Oct-09 02:28N 40°41' W 074°09'0 0.0
2014-Oct-09 01:31N 40°41' W 074°09'0 0.0
2014-Oct-09 00:31N 40°41' W 074°09'0 0.0
2014-Oct-08 23:31N 40°41' W 074°09'0 0.0
2014-Oct-08 22:31N 40°41' W 074°09'0 0.1
2014-Oct-08 21:33N 40°41' W 074°09'4 3.7
2014-Oct-08 20:33N 40°39' W 074°05'1010.3
2014-Oct-08 19:33N 40°30' W 073°57'1010.2
2014-Oct-08 18:33N 40°24' W 073°47'1313.1
2014-Oct-08 17:32N 40°11' W 073°45'1614.2
2014-Oct-08 16:26N 39°55' W 073°43'1213.9
2014-Oct-08 15:33N 39°43' W 073°42'1917.0
2014-Oct-08 14:27N 39°25' W 073°48'1617.8
2014-Oct-08 13:32N 39°09' W 073°53'15118.3
2014-Oct-08 05:18N 36°60' W 075°31'1516.7
2014-Oct-08 04:23N 36°49' W 075°44'1315.7
2014-Oct-08 03:33N 36°56' W 075°58'1313.0
2014-Oct-08 02:33N 37°00' W 076°13'10 2.3
2014-Oct-07 22:17N 36°52' W 076°21'0 0.0
2014-Oct-07 21:19N 36°52' W 076°21'0 0.0
2014-Oct-07 20:23N 36°52' W 076°21'0 0.0
2014-Oct-07 19:27N 36°52' W 076°21'0 0.0
2014-Oct-07 18:24N 36°52' W 076°21'0 0.0
2014-Oct-07 17:33N 36°52' W 076°21'0 0.0
2014-Oct-07 16:25N 36°52' W 076°21'0 0.2
2014-Oct-07 15:32N 36°53' W 076°21'6 6.0
2014-Oct-07 14:33N 36°58' W 076°20'1313.2
2014-Oct-07 13:33N 36°58' W 076°04'8 7.1
2014-Oct-07 12:29N 37°05' W 076°06'1313.2
2014-Oct-07 11:28N 37°18' W 076°06'8316.0
2014-Oct-07 06:17N 38°40' W 076°25'1416.8
2014-Oct-07 05:26N 38°54' W 076°24'1313.3
2014-Oct-07 04:29N 39°07' W 076°24'910.1
2014-Oct-07 03:33N 39°14' W 076°32'2 1.7
2014-Oct-07 02:33N 39°15' W 076°33'0 0.0
2014-Oct-07 01:33N 39°15' W 076°33'0 0.0
2014-Oct-07 00:31N 39°15' W 076°33'0 0.0
2014-Oct-06 23:31N 39°15' W 076°33'0 0.0
2014-Oct-06 22:31N 39°15' W 076°33'0 0.0
2014-Oct-06 21:31N 39°15' W 076°33'0 0.0
2014-Oct-06 20:31N 39°15' W 076°33'0 0.0
2014-Oct-06 19:32N 39°15' W 076°33'0 0.0
2014-Oct-06 18:31N 39°15' W 076°33'0 0.0
2014-Oct-06 17:32N 39°15' W 076°33'0 0.0
2014-Oct-06 16:31N 39°15' W 076°33'0 0.0
2014-Oct-06 15:31N 39°15' W 076°33'0 0.0
2014-Oct-06 14:31N 39°15' W 076°33'0 0.0
2014-Oct-06 13:32N 39°15' W 076°33'0 0.0
2014-Oct-06 12:31N 39°15' W 076°33'0 0.0
2014-Oct-06 11:31N 39°15' W 076°33'0 0.0
2014-Oct-06 10:31N 39°15' W 076°33'0 0.0
2014-Oct-06 09:31N 39°15' W 076°33'0 0.5
2014-Oct-06 08:33N 39°15' W 076°33'7 6.5
2014-Oct-06 07:33N 39°11' W 076°26'1313.4
2014-Oct-06 06:33N 38°57' W 076°23'1918.4
2014-Oct-06 05:33N 38°39' W 076°25'7917.7
2014-Oct-06 01:05N 37°21' W 076°05'1018.9
2014-Oct-06 00:32N 37°12' W 076°09'1716.7
2014-Oct-05 23:32N 36°57' W 075°59'1515.2
2014-Oct-05 22:32N 36°49' W 075°43'13813.8
2014-Oct-05 12:30N 34°31' W 076°00'  
Track history (hours):
 
Tides and Currents Weather Stations Pressure Air Temp Water Temp Dewpoint Dewpoint Depression Visibility Wind Speed Wind Dir Waves Ship Positions

Ever Delight

Last reported at 2014-Oct-09 18:04 UTC. Time now 2014-Oct-21 08:53 UTC.
Position N 39°22' W 073°54'.
Warning: this ship's position is 11 days out of date.

Type: Cargo ship. MMSI: 351936000.

Date/timePositionNaut miles runAvg speedWind from/ knotsBaromVisibWave heightAir tempDewpointWater temp
2014-Oct-09 18:04N 39°22' W 073°54'1314.4
2014-Oct-09 17:10N 39°35' W 073°53'913.9
2014-Oct-09 16:33N 39°43' W 073°53'1514.4
2014-Oct-09 15:32N 39°58' W 073°51'1914.5
2014-Oct-09 14:12N 40°17' W 073°49'913.3
2014-Oct-09 13:30N 40°27' W 073°49'1313.5
2014-Oct-09 12:33N 40°35' W 074°02'7 6.8
2014-Oct-09 11:34N 40°39' W 074°09'2 1.9
2014-Oct-09 10:30N 40°41' W 074°09'0 0.0
2014-Oct-09 09:33N 40°41' W 074°09'0 0.0
2014-Oct-09 08:33N 40°41' W 074°09'0 0.0
2014-Oct-09 07:26N 40°41' W 074°09'0 0.0
2014-Oct-09 06:31N 40°41' W 074°09'0 0.0
2014-Oct-09 05:31N 40°41' W 074°09'0 0.0
2014-Oct-09 04:25N 40°41' W 074°09'0 0.0
2014-Oct-09 03:25N 40°41' W 074°09'0 0.0
2014-Oct-09 02:28N 40°41' W 074°09'0 0.0
2014-Oct-09 01:31N 40°41' W 074°09'0 0.0
2014-Oct-09 00:31N 40°41' W 074°09'0 0.0
2014-Oct-08 23:31N 40°41' W 074°09'0 0.0
2014-Oct-08 22:31N 40°41' W 074°09'0 0.1
2014-Oct-08 21:33N 40°41' W 074°09'4 3.7
2014-Oct-08 20:33N 40°39' W 074°05'1010.3
2014-Oct-08 19:33N 40°30' W 073°57'1010.2
2014-Oct-08 18:33N 40°24' W 073°47'1313.1
2014-Oct-08 17:32N 40°11' W 073°45'1614.2
2014-Oct-08 16:26N 39°55' W 073°43'1213.9
2014-Oct-08 15:33N 39°43' W 073°42'1917.0
2014-Oct-08 14:27N 39°25' W 073°48'1617.8
2014-Oct-08 13:32N 39°09' W 073°53'15118.3
2014-Oct-08 05:18N 36°60' W 075°31'1516.7
2014-Oct-08 04:23N 36°49' W 075°44'1315.7
2014-Oct-08 03:33N 36°56' W 075°58'1313.0
2014-Oct-08 02:33N 37°00' W 076°13'10 2.3
2014-Oct-07 22:17N 36°52' W 076°21'0 0.0
2014-Oct-07 21:19N 36°52' W 076°21'0 0.0
2014-Oct-07 20:23N 36°52' W 076°21'0 0.0
2014-Oct-07 19:27N 36°52' W 076°21'0 0.0
2014-Oct-07 18:24N 36°52' W 076°21'0 0.0
2014-Oct-07 17:33N 36°52' W 076°21'0 0.0
2014-Oct-07 16:25N 36°52' W 076°21'0 0.2
2014-Oct-07 15:32N 36°53' W 076°21'6 6.0
2014-Oct-07 14:33N 36°58' W 076°20'1313.2
2014-Oct-07 13:33N 36°58' W 076°04'8 7.1
2014-Oct-07 12:29N 37°05' W 076°06'1313.2
2014-Oct-07 11:28N 37°18' W 076°06'8316.0
2014-Oct-07 06:17N 38°40' W 076°25'1416.8
2014-Oct-07 05:26N 38°54' W 076°24'1313.3
2014-Oct-07 04:29N 39°07' W 076°24'910.1
2014-Oct-07 03:33N 39°14' W 076°32'2 1.7
2014-Oct-07 02:33N 39°15' W 076°33'0 0.0
2014-Oct-07 01:33N 39°15' W 076°33'0 0.0
2014-Oct-07 00:31N 39°15' W 076°33'0 0.0
2014-Oct-06 23:31N 39°15' W 076°33'0 0.0
2014-Oct-06 22:31N 39°15' W 076°33'0 0.0
2014-Oct-06 21:31N 39°15' W 076°33'0 0.0
2014-Oct-06 20:31N 39°15' W 076°33'0 0.0
2014-Oct-06 19:32N 39°15' W 076°33'0 0.0
2014-Oct-06 18:31N 39°15' W 076°33'0 0.0
2014-Oct-06 17:32N 39°15' W 076°33'0 0.0
2014-Oct-06 16:31N 39°15' W 076°33'0 0.0
2014-Oct-06 15:31N 39°15' W 076°33'0 0.0
2014-Oct-06 14:31N 39°15' W 076°33'0 0.0
2014-Oct-06 13:32N 39°15' W 076°33'0 0.0
2014-Oct-06 12:31N 39°15' W 076°33'0 0.0
2014-Oct-06 11:31N 39°15' W 076°33'0 0.0
2014-Oct-06 10:31N 39°15' W 076°33'0 0.0
2014-Oct-06 09:31N 39°15' W 076°33'0 0.5
2014-Oct-06 08:33N 39°15' W 076°33'7 6.5
2014-Oct-06 07:33N 39°11' W 076°26'1313.4
2014-Oct-06 06:33N 38°57' W 076°23'1918.4
2014-Oct-06 05:33N 38°39' W 076°25'7917.7
2014-Oct-06 01:05N 37°21' W 076°05'1018.9
2014-Oct-06 00:32N 37°12' W 076°09'1716.7
2014-Oct-05 23:32N 36°57' W 075°59'1515.2
2014-Oct-05 22:32N 36°49' W 075°43'13813.8
2014-Oct-05 12:30N 34°31' W 076°00'  

Dump ship's entire track history